Terminal Aerodrome Forecast
Issued by NWS

Home | Current Version | Previous Version | Graphics & Text | Print | Product List | Glossary On
Versions: 1 2 3 4 5 6 7 8 9 10 11 12 13 14 15 16 17 18 19 20 21 22 23 24 25 26 27
000
FTUS43 KFGF 191100
TAFBJI
TAF
KBJI 191139Z 1912/2012 19015KT P6SM BKN130
     FM191500 19015KT P6SM OVC015
     FM191800 19013KT P6SM OVC020
     FM192100 20012KT P6SM BKN040=

USA.gov is the U.S. government's official web portal to all federal, state and local government web resources and services.